Time;durP1;ratioP1;P1;durP2;ratioP2;P2;SDS_P1;SDS_P2;PMS_P1;PMS_P2;Temp;Humidity;BMP_temperature;BMP_pressure;BME280_temperature;BME280_humidity;BME280_pressure;Samples;Min_cycle;Max_cycle;Signal;HPM_P1;HPM_P2
2021/06/05 00:01:07;;;;;;;120.80;108.43;;;15.80;89.10;;;;;;5045270;28;20141;-76
2021/06/05 00:03:32;;;;;;;124.93;112.18;;;15.80;89.40;;;;;;5046392;28;20603;-75
2021/06/05 00:06:00;;;;;;;120.22;107.85;;;15.80;89.50;;;;;;5043595;28;20108;-75
2021/06/05 00:08:28;;;;;;;119.85;107.90;;;15.80;89.70;;;;;;5048822;28;20130;-75
2021/06/05 00:11:01;;;;;;;114.10;102.88;;;15.80;89.50;;;;;;5049038;28;20033;-75
2021/06/05 00:13:33;;;;;;;115.75;104.30;;;15.80;89.50;;;;;;5045774;28;20080;-75
2021/06/05 00:16:00;;;;;;;111.75;100.65;;;15.80;89.50;;;;;;5047751;28;20086;-75
2021/06/05 00:18:27;;;;;;;106.97;96.38;;;15.80;89.40;;;;;;5045304;28;20037;-75
2021/06/05 00:20:54;;;;;;;104.72;94.50;;;15.70;89.40;;;;;;5047752;28;20120;-75
2021/06/05 00:23:21;;;;;;;104.95;94.88;;;15.70;89.50;;;;;;5045781;28;20082;-75
2021/06/05 00:25:48;;;;;;;101.63;91.68;;;15.80;89.50;;;;;;5051175;28;20085;-76
2021/06/05 00:28:14;;;;;;;94.75;85.38;;;15.70;89.30;;;;;;5044321;28;20025;-74
2021/06/05 00:30:41;;;;;;;97.22;87.43;;;15.70;89.40;;;;;;5043922;28;20167;-74
2021/06/05 00:33:08;;;;;;;95.53;85.70;;;15.70;89.30;;;;;;5046672;28;20041;-74
2021/06/05 00:35:35;;;;;;;92.93;83.25;;;15.70;89.30;;;;;;5044664;28;20029;-77
2021/06/05 00:38:01;;;;;;;95.03;85.50;;;15.60;89.10;;;;;;5046323;28;20158;-75
2021/06/05 00:40:31;;;;;;;83.57;74.85;;;15.60;89.20;;;;;;5046380;28;20048;-75
2021/06/05 00:42:58;;;;;;;75.32;67.43;;;15.60;89.40;;;;;;5042817;28;20369;-75
2021/06/05 00:45:29;;;;;;;65.88;58.75;;;15.60;88.90;;;;;;5042687;28;20036;-74
2021/06/05 00:47:54;;;;;;;63.72;56.83;;;15.60;88.80;;;;;;5049635;28;20044;-74
2021/06/05 00:50:21;;;;;;;61.67;54.97;;;15.50;88.10;;;;;;5046347;28;20036;-74
2021/06/05 00:52:47;;;;;;;60.95;53.78;;;15.40;88.00;;;;;;5046490;28;20040;-74
2021/06/05 00:55:16;;;;;;;60.58;53.97;;;15.40;88.20;;;;;;5045723;28;20064;-74
2021/06/05 00:57:41;;;;;;;66.68;56.50;;;15.40;87.90;;;;;;5047390;28;20064;-74
2021/06/05 01:00:27;;;;;;;63.78;54.38;;;15.40;88.10;;;;;;5045786;28;20060;-75
2021/06/05 01:02:57;;;;;;;65.95;55.83;;;15.40;88.00;;;;;;5038402;28;20049;-75
2021/06/05 01:05:22;;;;;;;64.35;54.80;;;15.30;87.50;;;;;;5043055;28;20033;-75
2021/06/05 01:07:50;;;;;;;64.65;57.50;;;15.30;87.80;;;;;;5046580;28;20483;-74
2021/06/05 01:10:26;;;;;;;66.15;54.13;;;15.20;88.10;;;;;;5047819;28;20256;-75
2021/06/05 01:13:03;;;;;;;63.47;55.08;;;15.30;88.00;;;;;;5061444;28;20569;-75
2021/06/05 01:15:32;;;;;;;64.40;53.70;;;15.30;88.20;;;;;;5044875;28;20049;-75
2021/06/05 01:18:02;;;;;;;62.45;51.97;;;15.20;88.10;;;;;;5044295;28;20021;-74
2021/06/05 01:20:46;;;;;;;68.15;54.60;;;15.20;88.00;;;;;;5042504;28;20033;-75
2021/06/05 01:23:36;;;;;;;71.30;54.45;;;15.10;88.20;;;;;;5048167;28;20508;-75
2021/06/05 01:26:11;;;;;;;74.30;57.38;;;15.10;88.40;;;;;;5041821;28;20047;-74
2021/06/05 01:28:54;;;;;;;66.95;55.45;;;15.10;88.40;;;;;;5035966;28;20129;-74
2021/06/05 01:31:32;;;;;;;68.35;55.72;;;15.00;88.50;;;;;;5045102;28;20041;-75
2021/06/05 01:34:00;;;;;;;67.07;57.08;;;15.00;88.60;;;;;;5057526;28;20132;-75
2021/06/05 01:36:27;;;;;;;66.45;57.50;;;15.00;88.90;;;;;;5046654;28;20457;-75
2021/06/05 01:39:00;;;;;;;68.88;57.50;;;15.00;88.90;;;;;;5042535;28;20025;-75
2021/06/05 01:41:29;;;;;;;63.97;53.78;;;15.00;89.00;;;;;;5039774;28;20061;-74
2021/06/05 01:43:56;;;;;;;66.53;55.78;;;14.90;88.80;;;;;;5045513;28;20041;-75
2021/06/05 01:46:27;;;;;;;66.78;55.08;;;14.90;89.20;;;;;;5046522;28;20044;-74
2021/06/05 01:48:54;;;;;;;72.50;56.50;;;14.90;89.20;;;;;;5042821;28;20120;-75
2021/06/05 01:51:20;;;;;;;64.35;55.35;;;14.80;89.20;;;;;;5038392;28;20037;-75
2021/06/05 01:53:55;;;;;;;67.78;57.13;;;15.00;89.30;;;;;;5043128;28;20040;-75
2021/06/05 01:56:33;;;;;;;61.13;52.33;;;14.90;88.90;;;;;;5042751;28;20095;-74
2021/06/05 01:58:59;;;;;;;61.42;53.17;;;14.80;89.20;;;;;;5043946;28;20440;-74
2021/06/05 02:01:25;;;;;;;64.07;53.10;;;14.90;89.10;;;;;;5038376;28;20048;-74
2021/06/05 02:03:51;;;;;;;58.38;50.05;;;14.90;89.30;;;;;;5046014;28;20040;-74
2021/06/05 02:06:19;;;;;;;63.45;52.88;;;14.90;89.00;;;;;;5045874;28;20388;-75
2021/06/05 02:08:44;;;;;;;62.40;49.90;;;14.90;89.30;;;;;;5045717;28;20039;-75
2021/06/05 02:11:15;;;;;;;59.00;52.60;;;14.90;89.20;;;;;;5045326;28;20048;-75
2021/06/05 02:13:49;;;;;;;60.53;49.83;;;15.00;89.00;;;;;;5048623;28;20191;-75
2021/06/05 02:16:23;;;;;;;;;;;14.90;89.00;;;;;;5050114;28;20040;-74
2021/06/05 02:18:55;;;;;;;54.30;48.00;;;14.80;89.10;;;;;;5049514;28;19916;-75
2021/06/05 02:21:23;;;;;;;55.50;48.08;;;14.80;89.30;;;;;;5049067;28;20048;-75
2021/06/05 02:23:59;;;;;;;55.42;47.35;;;14.80;89.10;;;;;;5049302;28;20389;-74
2021/06/05 02:26:25;;;;;;;56.95;48.95;;;14.80;89.00;;;;;;5046527;28;20034;-75
2021/06/05 02:28:55;;;;;;;56.80;48.70;;;14.80;89.20;;;;;;5050491;28;20033;-75
2021/06/05 02:31:21;;;;;;;59.97;48.72;;;14.80;89.00;;;;;;5048110;28;20040;-75
2021/06/05 02:33:48;;;;;;;52.47;45.30;;;14.80;89.10;;;;;;5046436;28;20045;-75
2021/06/05 02:36:15;;;;;;;48.55;43.33;;;14.90;88.90;;;;;;5043899;28;20033;-75
2021/06/05 02:38:46;;;;;;;51.92;44.53;;;14.80;89.00;;;;;;5044723;28;20120;-75
2021/06/05 02:41:14;;;;;;;49.80;41.55;;;14.80;88.90;;;;;;5047651;28;20049;-75
2021/06/05 02:43:42;;;;;;;44.90;38.15;;;14.70;88.80;;;;;;5036999;28;20033;-75
2021/06/05 02:46:29;;;;;;;46.67;38.78;;;14.70;88.60;;;;;;5049698;28;20090;-76
2021/06/05 02:49:05;;;;;;;44.92;37.83;;;14.70;88.90;;;;;;5047934;28;20053;-75
2021/06/05 02:51:39;;;;;;;44.97;36.67;;;14.70;88.90;;;;;;5051108;28;20025;-75
2021/06/05 02:54:05;;;;;;;42.55;36.13;;;14.60;88.90;;;;;;5043318;28;20451;-75
2021/06/05 02:56:31;;;;;;;44.30;36.25;;;14.70;89.00;;;;;;5048268;28;20475;-75
2021/06/05 02:58:57;;;;;;;47.67;37.00;;;14.70;89.00;;;;;;5046365;28;20390;-75
2021/06/05 03:01:22;;;;;;;43.53;36.70;;;14.70;89.10;;;;;;5046343;28;20043;-75
2021/06/05 03:03:48;;;;;;;44.28;35.97;;;14.70;89.20;;;;;;5046585;28;20111;-75
2021/06/05 03:06:14;;;;;;;42.63;32.85;;;14.60;89.20;;;;;;5046345;28;20033;-75
2021/06/05 03:08:42;;;;;;;41.13;34.08;;;14.70;89.30;;;;;;5048771;28;20041;-75
2021/06/05 03:11:17;;;;;;;43.95;35.25;;;14.70;89.30;;;;;;5048759;28;20043;-76
2021/06/05 03:13:44;;;;;;;39.67;33.58;;;14.60;89.20;;;;;;5052194;28;20043;-75
2021/06/05 03:16:11;;;;;;;38.58;34.55;;;14.60;89.30;;;;;;5048866;28;20063;-75
2021/06/05 03:18:37;;;;;;;40.53;32.90;;;14.60;89.40;;;;;;5049177;28;20420;-75
2021/06/05 03:21:05;;;;;;;36.72;32.92;;;14.60;89.20;;;;;;5052557;28;20438;-75
2021/06/05 03:23:31;;;;;;;38.83;32.47;;;14.60;89.20;;;;;;5049731;28;20052;-75
2021/06/05 03:25:58;;;;;;;41.75;32.88;;;14.70;89.00;;;;;;5047315;28;20500;-75
2021/06/05 03:28:26;;;;;;;37.67;31.13;;;14.60;88.60;;;;;;5047931;28;20057;-74
2021/06/05 03:30:52;;;;;;;40.03;32.30;;;14.70;88.90;;;;;;5046143;28;20037;-75
2021/06/05 03:33:20;;;;;;;37.17;30.90;;;14.70;88.90;;;;;;5045894;28;20049;-75
2021/06/05 03:35:45;;;;;;;36.28;30.40;;;14.70;88.90;;;;;;5049891;28;20040;-74
2021/06/05 03:38:11;;;;;;;39.55;34.05;;;14.70;89.00;;;;;;5046988;28;20082;-74
2021/06/05 03:40:40;;;;;;;37.53;33.17;;;14.80;89.00;;;;;;5049424;28;20040;-74
2021/06/05 03:43:07;;;;;;;37.58;33.22;;;14.70;88.90;;;;;;5042668;28;20073;-75
2021/06/05 03:45:33;;;;;;;42.38;33.13;;;14.70;88.90;;;;;;5049846;28;20075;-75
2021/06/05 03:48:00;;;;;;;36.10;31.33;;;14.60;88.60;;;;;;5048337;28;20595;-75
2021/06/05 03:50:42;;;;;;;39.63;31.85;;;14.60;88.50;;;;;;5047420;28;20033;-75
2021/06/05 03:53:09;;;;;;;39.15;33.55;;;14.60;88.60;;;;;;5045237;28;20044;-75
2021/06/05 03:55:35;;;;;;;39.15;33.75;;;14.60;88.60;;;;;;5044683;28;20048;-76
2021/06/05 03:58:01;;;;;;;39.58;33.85;;;14.60;88.50;;;;;;5048687;28;20083;-75
2021/06/05 04:00:36;;;;;;;39.38;33.28;;;14.60;88.70;;;;;;5050416;28;20025;-75
2021/06/05 04:03:03;;;;;;;41.00;34.38;;;14.60;88.60;;;;;;5040968;28;20078;-75
2021/06/05 04:05:29;;;;;;;40.47;35.42;;;14.70;88.50;;;;;;5045554;28;20464;-75
2021/06/05 04:07:54;;;;;;;46.63;36.90;;;14.60;88.20;;;;;;5051946;28;20392;-75
2021/06/05 04:10:23;;;;;;;45.53;38.47;;;14.60;88.40;;;;;;5047499;28;20040;-75
2021/06/05 04:12:49;;;;;;;47.70;40.08;;;14.50;88.50;;;;;;5047186;28;20033;-75
2021/06/05 04:15:17;;;;;;;46.60;39.65;;;14.60;88.60;;;;;;5045882;28;20448;-75
2021/06/05 04:17:43;;;;;;;44.92;36.22;;;14.60;88.60;;;;;;5044171;28;20033;-75
2021/06/05 04:20:13;;;;;;;41.72;37.20;;;14.60;88.30;;;;;;5047156;28;20025;-75
2021/06/05 04:22:39;;;;;;;39.35;35.15;;;14.60;88.20;;;;;;5047472;28;20455;-75
2021/06/05 04:25:06;;;;;;;41.00;35.65;;;14.60;88.00;;;;;;5049318;28;20068;-75
2021/06/05 04:27:32;;;;;;;39.95;35.60;;;14.50;87.70;;;;;;5045999;28;20032;-75
2021/06/05 04:29:57;;;;;;;41.35;36.33;;;14.50;87.90;;;;;;5047513;28;20033;-75
2021/06/05 04:32:23;;;;;;;43.42;37.63;;;14.50;87.90;;;;;;5046250;28;20511;-75
2021/06/05 04:34:49;;;;;;;45.10;38.20;;;14.60;87.90;;;;;;5047758;28;20470;-75
2021/06/05 04:37:15;;;;;;;46.40;41.40;;;14.50;88.10;;;;;;5045745;28;20029;-75
2021/06/05 04:39:40;;;;;;;45.70;40.00;;;14.50;88.30;;;;;;5046670;28;20365;-75
2021/06/05 04:42:08;;;;;;;43.17;38.58;;;14.40;88.40;;;;;;5046958;28;20041;-75
2021/06/05 04:44:34;;;;;;;48.13;39.35;;;14.40;88.40;;;;;;5048864;28;20037;-75
2021/06/05 04:47:00;;;;;;;42.85;38.15;;;14.30;88.30;;;;;;5050351;28;20037;-74
2021/06/05 04:49:25;;;;;;;43.65;37.42;;;14.30;88.30;;;;;;5047771;28;20038;-75
2021/06/05 04:51:51;;;;;;;42.30;37.70;;;14.30;88.00;;;;;;5046030;28;20040;-74
2021/06/05 04:54:17;;;;;;;44.28;37.72;;;14.20;88.00;;;;;;5045657;28;20041;-74
2021/06/05 04:56:49;;;;;;;44.20;38.20;;;14.10;88.00;;;;;;5047151;28;20025;-75
2021/06/05 04:59:20;;;;;;;42.88;38.25;;;14.20;88.30;;;;;;5045979;28;20025;-75
2021/06/05 05:01:46;;;;;;;44.67;39.10;;;14.10;88.30;;;;;;5047585;28;20033;-75
2021/06/05 05:04:12;;;;;;;44.15;39.00;;;14.20;88.40;;;;;;5046150;28;20090;-75
2021/06/05 05:06:38;;;;;;;44.85;39.78;;;14.10;88.40;;;;;;5047271;28;20048;-74
2021/06/05 05:09:07;;;;;;;45.22;40.38;;;14.10;88.50;;;;;;5046572;28;20115;-74
2021/06/05 05:11:33;;;;;;;47.13;40.88;;;14.20;88.50;;;;;;5045208;28;20177;-75
2021/06/05 05:13:59;;;;;;;45.80;40.88;;;14.20;88.50;;;;;;5046394;28;20103;-75
2021/06/05 05:16:25;;;;;;;48.90;41.63;;;14.20;88.30;;;;;;5048413;28;20041;-74
2021/06/05 05:18:53;;;;;;;48.35;43.10;;;14.10;88.40;;;;;;5042393;28;20098;-75
2021/06/05 05:21:20;;;;;;;46.45;41.10;;;14.10;88.50;;;;;;5044674;28;20056;-76
2021/06/05 05:23:46;;;;;;;46.55;41.50;;;14.20;88.30;;;;;;5047996;28;20384;-73
2021/06/05 05:26:12;;;;;;;46.83;41.67;;;14.10;88.30;;;;;;5045438;28;20029;-73
2021/06/05 05:28:39;;;;;;;45.40;40.63;;;14.10;88.40;;;;;;5044974;28;20119;-74
2021/06/05 05:31:12;;;;;;;46.47;40.78;;;14.10;88.60;;;;;;5043348;28;20048;-75
2021/06/05 05:33:38;;;;;;;46.22;40.90;;;14.10;88.60;;;;;;5050696;28;20052;-74
2021/06/05 05:36:11;;;;;;;46.78;41.72;;;14.10;88.80;;;;;;5049578;28;20446;-74
2021/06/05 05:38:37;;;;;;;44.17;39.60;;;14.10;88.60;;;;;;5052235;28;20040;-76
2021/06/05 05:41:08;;;;;;;46.40;41.35;;;14.10;88.60;;;;;;5045133;28;20068;-74
2021/06/05 05:43:34;;;;;;;47.83;42.60;;;14.10;88.70;;;;;;5044692;28;20025;-74
2021/06/05 05:46:00;;;;;;;46.60;40.88;;;14.20;88.80;;;;;;5051353;28;20041;-74
2021/06/05 05:48:26;;;;;;;44.33;39.63;;;14.30;88.40;;;;;;5054539;28;20416;-75
2021/06/05 05:50:52;;;;;;;43.33;38.83;;;14.20;88.50;;;;;;5054565;28;20476;-74
2021/06/05 05:53:19;;;;;;;43.85;39.13;;;14.30;88.30;;;;;;5054334;28;20044;-75
2021/06/05 05:55:44;;;;;;;42.42;38.00;;;14.10;88.50;;;;;;5052569;28;20485;-74
2021/06/05 05:58:13;;;;;;;41.63;37.20;;;14.10;88.60;;;;;;5048205;28;20095;-75
2021/06/05 06:00:41;;;;;;;45.17;40.47;;;14.10;88.60;;;;;;5048601;28;20033;-74
2021/06/05 06:03:08;;;;;;;44.42;39.67;;;14.20;88.60;;;;;;5046850;28;20503;-74
2021/06/05 06:05:35;;;;;;;41.72;37.47;;;14.20;88.70;;;;;;5049434;28;20071;-74
2021/06/05 06:08:01;;;;;;;43.72;39.13;;;14.10;88.60;;;;;;5047250;28;20037;-75
2021/06/05 06:10:27;;;;;;;45.90;40.88;;;14.20;88.60;;;;;;5049090;28;20029;-75
2021/06/05 06:12:53;;;;;;;41.05;36.85;;;14.20;88.80;;;;;;5051397;28;20048;-74
2021/06/05 06:15:24;;;;;;;42.08;37.72;;;14.20;88.60;;;;;;5045059;28;20041;-75
2021/06/05 06:17:51;;;;;;;41.60;37.28;;;14.20;88.50;;;;;;5047271;28;20053;-75
2021/06/05 06:20:55;;;;;;;43.90;39.25;;;14.30;88.60;;;;;;5048474;28;20140;-75
2021/06/05 06:23:30;;;;;;;42.88;37.90;;;14.20;88.40;;;;;;5047780;28;20067;-74
2021/06/05 06:26:00;;;;;;;41.80;37.38;;;14.30;88.60;;;;;;5047000;28;20033;-74
2021/06/05 06:28:30;;;;;;;45.35;39.80;;;14.30;88.50;;;;;;5046690;28;20095;-74
2021/06/05 06:30:57;;;;;;;42.50;38.08;;;14.20;88.50;;;;;;5040892;28;20057;-75
2021/06/05 06:33:24;;;;;;;42.25;37.13;;;14.30;88.60;;;;;;5048837;28;20461;-74
2021/06/05 06:35:50;;;;;;;43.13;38.53;;;14.30;88.50;;;;;;5045911;28;20029;-74
2021/06/05 06:38:32;;;;;;;42.80;38.03;;;14.30;88.40;;;;;;5048640;28;20029;-75
2021/06/05 06:40:59;;;;;;;40.55;36.30;;;14.30;88.50;;;;;;5045234;28;20464;-74
2021/06/05 06:43:28;;;;;;;41.78;37.35;;;14.30;88.60;;;;;;5044431;28;20032;-74
2021/06/05 06:45:54;;;;;;;39.22;34.97;;;14.40;88.60;;;;;;5046868;28;20044;-74
2021/06/05 06:48:21;;;;;;;39.38;34.00;;;14.40;88.20;;;;;;5045240;28;20030;-75
2021/06/05 06:50:48;;;;;;;38.75;34.63;;;14.40;88.20;;;;;;5041588;28;20495;-71
2021/06/05 06:53:14;;;;;;;40.63;35.75;;;14.40;88.10;;;;;;5041636;28;20041;-70
2021/06/05 06:55:39;;;;;;;40.15;34.75;;;14.40;88.30;;;;;;5036752;28;20040;-71
2021/06/05 06:58:05;;;;;;;37.45;33.42;;;14.40;88.30;;;;;;5045920;28;20044;-70
2021/06/05 07:00:35;;;;;;;38.05;34.15;;;14.40;88.00;;;;;;5039765;28;20080;-70
2021/06/05 07:03:01;;;;;;;37.95;33.85;;;14.40;88.10;;;;;;5036035;28;20033;-71
2021/06/05 07:05:27;;;;;;;36.22;32.15;;;14.30;88.20;;;;;;5039024;28;20052;-70
2021/06/05 07:08:25;;;;;;;36.50;32.60;;;14.30;88.50;;;;;;5035154;28;20061;-71
2021/06/05 07:11:00;;;;;;;37.50;32.83;;;14.20;88.70;;;;;;5032867;28;20041;-70
2021/06/05 07:13:27;;;;;;;36.15;30.52;;;14.30;88.90;;;;;;5039392;28;20045;-73
2021/06/05 07:15:55;;;;;;;35.45;31.45;;;14.30;88.70;;;;;;5037586;28;20037;-70
2021/06/05 07:18:21;;;;;;;35.47;31.75;;;14.30;88.70;;;;;;5034787;28;20571;-71
2021/06/05 07:20:49;;;;;;;36.45;31.05;;;14.40;88.60;;;;;;5037954;28;20425;-72
2021/06/05 07:23:17;;;;;;;33.28;29.48;;;14.40;88.70;;;;;;5045687;28;20036;-70
2021/06/05 07:25:43;;;;;;;32.15;28.75;;;14.50;88.60;;;;;;5038241;28;20030;-72
2021/06/05 07:28:11;;;;;;;33.15;29.65;;;14.50;88.50;;;;;;5041975;28;20033;-71
2021/06/05 07:30:36;;;;;;;30.75;27.60;;;14.60;88.30;;;;;;5035570;28;20064;-71
2021/06/05 07:33:03;;;;;;;32.05;28.52;;;14.60;88.20;;;;;;5046601;28;20064;-71
2021/06/05 07:35:28;;;;;;;32.35;28.48;;;14.50;88.00;;;;;;5045758;28;20036;-72
2021/06/05 07:37:54;;;;;;;30.25;26.80;;;14.50;88.30;;;;;;5043015;28;20040;-72
2021/06/05 07:40:20;;;;;;;30.95;27.63;;;14.50;88.20;;;;;;5041031;28;20143;-72
2021/06/05 07:42:46;;;;;;;29.80;26.65;;;14.50;88.40;;;;;;5055473;28;20082;-71
2021/06/05 07:45:12;;;;;;;30.48;27.25;;;14.50;88.60;;;;;;5041128;28;20033;-71
2021/06/05 07:47:37;;;;;;;29.23;26.13;;;14.50;88.60;;;;;;5038795;28;20036;-73
2021/06/05 07:50:09;;;;;;;30.10;25.52;;;14.50;88.50;;;;;;5038375;28;20036;-70
2021/06/05 07:52:35;;;;;;;28.70;25.55;;;14.40;88.30;;;;;;5036985;28;20484;-71
2021/06/05 07:55:02;;;;;;;27.42;24.45;;;14.50;88.30;;;;;;5035937;28;20037;-71
2021/06/05 07:57:28;;;;;;;26.88;23.98;;;14.60;88.30;;;;;;5044736;28;20033;-72
2021/06/05 07:59:54;;;;;;;30.27;23.95;;;14.60;88.40;;;;;;5031629;28;20040;-71
2021/06/05 08:02:19;;;;;;;25.75;22.50;;;14.60;88.00;;;;;;5032451;28;20087;-71
2021/06/05 08:04:46;;;;;;;26.35;23.52;;;14.60;88.10;;;;;;5031969;28;20072;-70
2021/06/05 08:07:12;;;;;;;27.08;24.17;;;14.70;88.00;;;;;;5039009;28;20028;-74
2021/06/05 08:09:37;;;;;;;25.83;22.63;;;14.70;87.90;;;;;;5042199;28;20029;-71
2021/06/05 08:12:05;;;;;;;27.63;22.23;;;14.70;87.70;;;;;;5043752;28;20123;-71
2021/06/05 08:14:31;;;;;;;26.10;22.00;;;14.70;87.90;;;;;;5039091;28;20056;-70
2021/06/05 08:16:57;;;;;;;24.65;21.60;;;14.60;87.60;;;;;;5040724;28;20108;-71
2021/06/05 08:19:23;;;;;;;29.88;22.83;;;14.60;87.90;;;;;;5038249;28;20055;-70
2021/06/05 08:21:49;;;;;;;25.40;20.88;;;14.70;87.90;;;;;;5039670;28;20495;-70
2021/06/05 08:24:17;;;;;;;26.02;22.30;;;14.80;87.70;;;;;;5038054;28;20037;-70
2021/06/05 08:26:44;;;;;;;25.67;22.15;;;14.80;87.60;;;;;;5039292;28;20119;-70
2021/06/05 08:29:10;;;;;;;24.27;21.65;;;14.80;87.40;;;;;;5037698;28;20416;-70
2021/06/05 08:31:37;;;;;;;25.73;21.65;;;14.90;87.50;;;;;;5036052;28;20040;-70
2021/06/05 08:34:03;;;;;;;28.13;21.95;;;14.70;87.50;;;;;;5034728;28;20462;-71
2021/06/05 08:36:30;;;;;;;24.20;21.08;;;14.70;87.60;;;;;;5027573;28;20052;-72
2021/06/05 08:38:56;;;;;;;23.52;21.00;;;14.80;87.50;;;;;;5044860;28;20453;-70
2021/06/05 08:41:31;;;;;;;23.77;20.92;;;14.80;87.40;;;;;;5045926;28;20111;-73
2021/06/05 08:44:24;;;;;;;23.77;21.10;;;14.90;87.50;;;;;;5041240;28;20063;-75
2021/06/05 08:47:01;;;;;;;24.08;20.55;;;14.80;87.40;;;;;;5041195;28;20083;-71
2021/06/05 08:49:32;;;;;;;23.27;20.77;;;14.90;87.20;;;;;;5039552;28;21224;-71
2021/06/05 08:52:07;;;;;;;23.25;20.70;;;14.90;86.90;;;;;;5040530;28;20033;-71
2021/06/05 08:54:47;;;;;;;24.55;20.73;;;15.00;86.90;;;;;;5037060;28;20048;-72
2021/06/05 08:57:34;;;;;;;22.80;19.98;;;15.00;86.70;;;;;;5027718;28;20110;-74
2021/06/05 09:00:18;;;;;;;23.83;20.25;;;15.00;86.70;;;;;;5037514;28;20049;-72
2021/06/05 09:02:47;;;;;;;23.38;20.50;;;15.00;86.30;;;;;;5027332;28;20128;-81
2021/06/05 09:05:19;;;;;;;25.00;21.88;;;15.00;86.70;;;;;;5031623;28;20056;-75
2021/06/05 09:07:45;;;;;;;24.10;21.50;;;15.00;86.70;;;;;;5030885;28;20040;-72
2021/06/05 09:10:13;;;;;;;23.75;20.05;;;14.90;86.50;;;;;;5036264;28;20054;-70
2021/06/05 09:12:38;;;;;;;27.48;22.95;;;14.90;86.60;;;;;;5032765;28;20147;-69
2021/06/05 09:15:05;;;;;;;26.80;22.33;;;15.00;86.40;;;;;;5036779;28;20113;-72
2021/06/05 09:17:49;;;;;;;26.95;21.58;;;15.00;86.40;;;;;;5039773;28;20045;-71
2021/06/05 09:20:26;;;;;;;28.75;23.90;;;15.10;86.20;;;;;;5032039;28;20041;-70
2021/06/05 09:22:53;;;;;;;29.83;22.98;;;15.20;86.30;;;;;;5038739;28;20041;-71
2021/06/05 09:25:35;;;;;;;28.80;22.00;;;15.30;85.70;;;;;;5036120;28;20063;-72
2021/06/05 09:28:16;;;;;;;32.65;23.92;;;15.20;84.90;;;;;;5036077;28;20332;-72
2021/06/05 09:30:42;;;;;;;26.67;21.20;;;15.10;84.70;;;;;;5036596;28;20123;-71
2021/06/05 09:33:13;;;;;;;28.30;22.08;;;15.10;84.80;;;;;;5032620;28;20473;-73
2021/06/05 09:35:44;;;;;;;23.98;20.98;;;15.10;85.30;;;;;;5034047;28;20652;-68
2021/06/05 09:38:26;;;;;;;27.15;21.52;;;15.10;85.40;;;;;;5038465;28;20055;-71
2021/06/05 09:41:12;;;;;;;25.33;20.08;;;15.10;85.80;;;;;;5040964;28;20044;-71
2021/06/05 09:43:38;;;;;;;24.35;19.88;;;15.10;85.20;;;;;;5039456;28;20041;-71
2021/06/05 09:46:12;;;;;;;28.65;21.77;;;15.10;85.70;;;;;;5038543;28;20082;-72
2021/06/05 09:48:45;;;;;;;27.50;21.73;;;15.10;85.60;;;;;;5038291;28;20048;-71
2021/06/05 09:51:23;;;;;;;25.65;20.25;;;15.10;86.50;;;;;;5042993;28;20037;-71
2021/06/05 09:54:08;;;;;;;23.80;19.52;;;15.10;86.90;;;;;;5041575;28;20055;-70
2021/06/05 09:56:43;;;;;;;25.30;19.20;;;15.10;87.30;;;;;;5038550;28;20037;-73
2021/06/05 09:59:30;;;;;;;22.33;17.10;;;15.10;87.60;;;;;;5040024;28;20116;-73
2021/06/05 10:02:00;;;;;;;21.92;18.10;;;15.20;87.80;;;;;;5039563;28;20033;-70
2021/06/05 10:04:29;;;;;;;22.73;16.95;;;15.30;87.50;;;;;;5038587;28;20037;-72
2021/06/05 10:06:57;;;;;;;22.52;17.25;;;15.40;87.60;;;;;;5040219;28;20033;-74
2021/06/05 10:09:26;;;;;;;23.10;17.85;;;15.60;87.40;;;;;;5042784;28;20116;-72
2021/06/05 10:11:53;;;;;;;21.75;17.27;;;15.50;86.90;;;;;;5042188;28;20049;-70
2021/06/05 10:14:45;;;;;;;23.20;18.33;;;15.50;87.10;;;;;;5041236;28;20413;-70
2021/06/05 10:17:22;;;;;;;27.00;18.90;;;15.40;87.10;;;;;;5039889;28;20356;-71
2021/06/05 10:20:14;;;;;;;24.77;18.85;;;15.40;87.50;;;;;;5041709;28;20045;-71
2021/06/05 10:22:40;;;;;;;26.27;19.30;;;15.40;87.70;;;;;;5030452;28;20496;-71
2021/06/05 10:25:15;;;;;;;24.92;18.23;;;15.40;87.80;;;;;;5040757;28;20041;-72
2021/06/05 10:27:43;;;;;;;26.25;19.20;;;15.30;87.30;;;;;;5038851;28;20037;-71
2021/06/05 10:30:34;;;;;;;27.98;19.15;;;15.20;87.40;;;;;;5039644;28;20040;-71
2021/06/05 10:33:03;;;;;;;28.52;20.75;;;15.10;87.90;;;;;;5037618;28;20056;-71
2021/06/05 10:35:38;;;;;;;27.90;20.85;;;15.10;88.40;;;;;;5044728;28;20506;-71
2021/06/05 10:38:29;;;;;;;27.02;20.58;;;15.10;88.30;;;;;;5042262;28;20060;-71
2021/06/05 10:40:55;;;;;;;30.15;21.27;;;15.10;88.20;;;;;;5042752;28;20045;-71
2021/06/05 10:43:20;;;;;;;30.27;21.33;;;15.30;88.20;;;;;;5042172;28;21650;-71
2021/06/05 10:45:49;;;;;;;24.85;19.40;;;15.50;88.30;;;;;;5041905;28;20172;-71
2021/06/05 10:48:39;;;;;;;26.83;20.27;;;15.40;87.20;;;;;;5041187;28;20481;-71
2021/06/05 10:51:17;;;;;;;27.05;20.23;;;15.40;87.20;;;;;;5041637;28;20388;-72
2021/06/05 10:54:03;;;;;;;26.77;19.83;;;15.30;87.00;;;;;;5040580;28;20028;-71
2021/06/05 10:56:49;;;;;;;23.70;19.15;;;15.40;86.30;;;;;;5037727;28;20086;-71
2021/06/05 10:59:43;;;;;;;27.65;19.17;;;15.50;85.80;;;;;;5036823;28;20043;-72
2021/06/05 11:02:30;;;;;;;24.08;17.58;;;15.60;85.70;;;;;;5040235;28;20083;-71
2021/06/05 11:04:56;;;;;;;20.77;16.35;;;15.60;85.40;;;;;;5040050;28;20135;-70
2021/06/05 11:07:28;;;;;;;16.85;14.55;;;15.70;84.40;;;;;;5040038;28;20111;-71
2021/06/05 11:09:57;;;;;;;18.02;13.88;;;15.90;84.80;;;;;;5043247;28;20040;-73
2021/06/05 11:12:25;;;;;;;17.38;13.93;;;16.10;83.40;;;;;;5039899;28;20032;-72
2021/06/05 11:14:54;;;;;;;14.68;12.70;;;16.00;82.90;;;;;;5039897;28;20460;-73
2021/06/05 11:17:35;;;;;;;15.45;13.05;;;15.90;83.20;;;;;;5043926;28;20037;-72
2021/06/05 11:20:08;;;;;;;14.82;12.18;;;16.10;83.80;;;;;;5033312;28;20048;-73
2021/06/05 11:22:52;;;;;;;14.82;12.23;;;16.10;82.40;;;;;;5045462;28;20040;-72
2021/06/05 11:25:24;;;;;;;14.55;12.88;;;16.10;81.80;;;;;;5047342;28;20036;-71
2021/06/05 11:27:52;;;;;;;14.25;11.85;;;16.30;81.80;;;;;;5041272;28;20033;-72
2021/06/05 11:30:21;;;;;;;14.23;12.25;;;16.30;80.90;;;;;;5043121;28;20052;-72
2021/06/05 11:32:57;;;;;;;14.98;12.52;;;16.20;81.40;;;;;;5046148;28;20404;-72
2021/06/05 11:35:37;;;;;;;15.38;12.45;;;16.30;81.30;;;;;;5041906;28;20044;-72
2021/06/05 11:38:32;;;;;;;17.02;12.63;;;16.40;81.90;;;;;;5046852;28;20095;-73
2021/06/05 11:41:01;;;;;;;14.90;11.75;;;16.50;81.70;;;;;;5043831;28;20185;-72
2021/06/05 11:43:29;;;;;;;16.58;12.88;;;16.60;79.80;;;;;;5042189;28;20038;-73
2021/06/05 11:46:30;;;;;;;13.88;11.88;;;16.60;80.40;;;;;;5044449;28;20025;-73
2021/06/05 11:49:01;;;;;;;15.10;12.75;;;16.40;80.90;;;;;;5044608;28;20032;-72
2021/06/05 11:51:36;;;;;;;13.93;12.40;;;16.30;81.80;;;;;;5043821;28;20499;-73
2021/06/05 11:54:13;;;;;;;16.63;13.63;;;16.20;81.90;;;;;;5041877;28;20047;-73
2021/06/05 11:56:57;;;;;;;17.50;13.75;;;16.40;82.10;;;;;;5039163;28;20044;-72
2021/06/05 11:59:33;;;;;;;19.38;14.48;;;16.50;81.30;;;;;;5040148;28;20033;-73
2021/06/05 12:02:25;;;;;;;15.73;14.07;;;16.60;81.80;;;;;;5047099;28;20114;-73
2021/06/05 12:04:56;;;;;;;19.50;14.43;;;16.60;80.80;;;;;;5040055;28;20042;-73
2021/06/05 12:07:32;;;;;;;16.20;13.18;;;16.30;81.20;;;;;;5039856;28;20477;-73
2021/06/05 12:09:58;;;;;;;16.13;12.20;;;16.10;82.20;;;;;;5043345;28;20120;-74
2021/06/05 12:12:31;;;;;;;14.40;11.73;;;16.10;82.60;;;;;;5040734;28;20048;-73
2021/06/05 12:15:08;;;;;;;15.55;11.82;;;15.70;82.60;;;;;;5043384;28;20112;-75
2021/06/05 12:17:40;;;;;;;15.40;12.40;;;15.80;82.60;;;;;;5039221;28;20037;-73
2021/06/05 12:20:14;;;;;;;17.05;13.00;;;15.80;82.20;;;;;;5041709;28;20033;-72
2021/06/05 12:22:44;;;;;;;16.92;13.25;;;16.10;81.60;;;;;;5044784;28;20548;-73
2021/06/05 12:25:22;;;;;;;17.92;13.77;;;16.10;80.50;;;;;;5040155;28;20045;-72
2021/06/05 12:27:48;;;;;;;19.02;13.55;;;16.30;80.60;;;;;;5039695;28;20041;-74
2021/06/05 12:30:29;;;;;;;15.30;13.38;;;16.60;79.40;;;;;;5040465;28;20621;-73
2021/06/05 12:33:02;;;;;;;20.13;14.10;;;16.60;78.80;;;;;;5045470;28;20053;-72
2021/06/05 12:35:47;;;;;;;17.38;13.93;;;16.50;78.90;;;;;;5040285;28;20044;-74
2021/06/05 12:38:33;;;;;;;20.58;14.80;;;16.60;79.10;;;;;;5038030;28;20025;-74
2021/06/05 12:41:06;;;;;;;20.35;14.48;;;16.60;79.00;;;;;;5035248;28;20026;-74
2021/06/05 12:43:35;;;;;;;18.60;14.35;;;16.80;78.70;;;;;;5042637;28;20408;-73